sensor_id;sensor_type;location;lat;lon;timestamp;P1;durP1;ratioP1;P2;durP2;ratioP2
35969;SDS011;22448;51.298;6.430;2023-08-06T00:01:51;8.25;;;3.80;;
35969;SDS011;22448;51.298;6.430;2023-08-06T00:04:19;7.15;;;3.53;;
35969;SDS011;22448;51.298;6.430;2023-08-06T00:06:46;7.13;;;3.65;;
35969;SDS011;22448;51.298;6.430;2023-08-06T00:09:14;6.30;;;3.50;;
35969;SDS011;22448;51.298;6.430;2023-08-06T00:11:41;7.18;;;3.25;;
35969;SDS011;22448;51.298;6.430;2023-08-06T00:14:10;10.85;;;3.60;;
35969;SDS011;22448;51.298;6.430;2023-08-06T00:16:37;7.45;;;3.30;;
35969;SDS011;22448;51.298;6.430;2023-08-06T00:19:04;10.43;;;3.28;;
35969;SDS011;22448;51.298;6.430;2023-08-06T00:21:31;6.35;;;3.88;;
35969;SDS011;22448;51.298;6.430;2023-08-06T00:23:58;8.43;;;3.90;;
35969;SDS011;22448;51.298;6.430;2023-08-06T00:26:25;7.43;;;3.60;;
35969;SDS011;22448;51.298;6.430;2023-08-06T00:28:52;7.28;;;3.63;;
35969;SDS011;22448;51.298;6.430;2023-08-06T00:31:19;6.90;;;4.30;;
35969;SDS011;22448;51.298;6.430;2023-08-06T00:33:46;4.95;;;3.55;;
35969;SDS011;22448;51.298;6.430;2023-08-06T00:36:14;9.85;;;3.90;;
35969;SDS011;22448;51.298;6.430;2023-08-06T00:38:41;7.25;;;4.07;;
35969;SDS011;22448;51.298;6.430;2023-08-06T00:41:08;9.18;;;4.38;;
35969;SDS011;22448;51.298;6.430;2023-08-06T00:43:35;9.15;;;4.00;;
35969;SDS011;22448;51.298;6.430;2023-08-06T00:46:02;8.80;;;4.13;;
35969;SDS011;22448;51.298;6.430;2023-08-06T00:48:30;8.95;;;4.50;;
35969;SDS011;22448;51.298;6.430;2023-08-06T00:50:57;13.32;;;4.40;;
35969;SDS011;22448;51.298;6.430;2023-08-06T00:53:25;7.47;;;4.20;;
35969;SDS011;22448;51.298;6.430;2023-08-06T00:55:52;8.95;;;4.80;;
35969;SDS011;22448;51.298;6.430;2023-08-06T00:58:19;10.93;;;4.90;;
35969;SDS011;22448;51.298;6.430;2023-08-06T01:00:46;12.35;;;4.60;;
35969;SDS011;22448;51.298;6.430;2023-08-06T01:03:14;9.02;;;4.85;;
35969;SDS011;22448;51.298;6.430;2023-08-06T01:05:42;7.50;;;4.57;;
35969;SDS011;22448;51.298;6.430;2023-08-06T01:08:19;14.38;;;4.28;;
35969;SDS011;22448;51.298;6.430;2023-08-06T01:11:00;11.05;;;4.32;;
35969;SDS011;22448;51.298;6.430;2023-08-06T01:13:54;6.40;;;4.32;;
35969;SDS011;22448;51.298;6.430;2023-08-06T01:16:32;7.72;;;4.55;;
35969;SDS011;22448;51.298;6.430;2023-08-06T01:19:00;8.30;;;4.88;;
35969;SDS011;22448;51.298;6.430;2023-08-06T01:21:27;14.25;;;4.82;;
35969;SDS011;22448;51.298;6.430;2023-08-06T01:23:54;6.20;;;4.30;;
35969;SDS011;22448;51.298;6.430;2023-08-06T01:29:13;6.47;;;3.80;;
35969;SDS011;22448;51.298;6.430;2023-08-06T01:31:46;15.65;;;4.88;;
35969;SDS011;22448;51.298;6.430;2023-08-06T01:34:17;6.77;;;4.30;;
35969;SDS011;22448;51.298;6.430;2023-08-06T01:36:48;10.63;;;4.75;;
35969;SDS011;22448;51.298;6.430;2023-08-06T01:39:15;9.85;;;4.90;;
35969;SDS011;22448;51.298;6.430;2023-08-06T01:41:42;6.40;;;4.50;;
35969;SDS011;22448;51.298;6.430;2023-08-06T01:44:09;8.60;;;4.10;;
35969;SDS011;22448;51.298;6.430;2023-08-06T01:46:36;8.90;;;4.50;;
35969;SDS011;22448;51.298;6.430;2023-08-06T01:49:03;10.20;;;4.90;;
35969;SDS011;22448;51.298;6.430;2023-08-06T01:51:31;7.55;;;4.43;;
35969;SDS011;22448;51.298;6.430;2023-08-06T01:53:58;6.57;;;4.50;;
35969;SDS011;22448;51.298;6.430;2023-08-06T01:56:25;10.20;;;4.38;;
35969;SDS011;22448;51.298;6.430;2023-08-06T01:58:52;7.63;;;3.92;;
35969;SDS011;22448;51.298;6.430;2023-08-06T02:01:19;13.13;;;4.53;;
35969;SDS011;22448;51.298;6.430;2023-08-06T02:03:47;8.57;;;4.40;;
35969;SDS011;22448;51.298;6.430;2023-08-06T02:06:14;10.68;;;4.88;;
35969;SDS011;22448;51.298;6.430;2023-08-06T02:08:41;10.90;;;5.25;;
35969;SDS011;22448;51.298;6.430;2023-08-06T02:11:08;9.65;;;4.75;;
35969;SDS011;22448;51.298;6.430;2023-08-06T02:13:35;7.40;;;4.50;;
35969;SDS011;22448;51.298;6.430;2023-08-06T02:16:02;6.80;;;4.03;;
35969;SDS011;22448;51.298;6.430;2023-08-06T02:18:29;10.70;;;5.15;;
35969;SDS011;22448;51.298;6.430;2023-08-06T02:20:58;8.68;;;4.35;;
35969;SDS011;22448;51.298;6.430;2023-08-06T02:23:27;8.73;;;4.80;;
35969;SDS011;22448;51.298;6.430;2023-08-06T02:26:01;7.28;;;4.88;;
35969;SDS011;22448;51.298;6.430;2023-08-06T02:28:29;8.30;;;4.85;;
35969;SDS011;22448;51.298;6.430;2023-08-06T02:30:57;5.72;;;4.50;;
35969;SDS011;22448;51.298;6.430;2023-08-06T02:33:25;8.25;;;4.57;;
35969;SDS011;22448;51.298;6.430;2023-08-06T02:36:01;13.63;;;5.22;;
35969;SDS011;22448;51.298;6.430;2023-08-06T02:38:32;9.55;;;5.38;;
35969;SDS011;22448;51.298;6.430;2023-08-06T02:41:02;9.48;;;5.07;;
35969;SDS011;22448;51.298;6.430;2023-08-06T02:43:30;6.38;;;4.45;;
35969;SDS011;22448;51.298;6.430;2023-08-06T02:45:57;13.65;;;5.45;;
35969;SDS011;22448;51.298;6.430;2023-08-06T02:48:25;15.25;;;5.25;;
35969;SDS011;22448;51.298;6.430;2023-08-06T02:50:53;10.73;;;4.90;;
35969;SDS011;22448;51.298;6.430;2023-08-06T02:53:24;9.20;;;4.57;;
35969;SDS011;22448;51.298;6.430;2023-08-06T02:55:51;9.80;;;4.25;;
35969;SDS011;22448;51.298;6.430;2023-08-06T02:58:24;11.05;;;4.32;;
35969;SDS011;22448;51.298;6.430;2023-08-06T03:01:03;7.10;;;4.18;;
35969;SDS011;22448;51.298;6.430;2023-08-06T03:03:52;9.20;;;4.43;;
35969;SDS011;22448;51.298;6.430;2023-08-06T03:06:25;8.43;;;4.22;;
35969;SDS011;22448;51.298;6.430;2023-08-06T03:08:55;10.35;;;4.15;;
35969;SDS011;22448;51.298;6.430;2023-08-06T03:11:22;11.07;;;4.13;;
35969;SDS011;22448;51.298;6.430;2023-08-06T03:13:54;10.30;;;5.37;;
35969;SDS011;22448;51.298;6.430;2023-08-06T03:16:21;8.95;;;4.13;;
35969;SDS011;22448;51.298;6.430;2023-08-06T03:18:48;8.65;;;4.35;;
35969;SDS011;22448;51.298;6.430;2023-08-06T03:21:15;10.60;;;4.45;;
35969;SDS011;22448;51.298;6.430;2023-08-06T03:23:42;8.05;;;4.63;;
35969;SDS011;22448;51.298;6.430;2023-08-06T03:26:09;8.93;;;4.53;;
35969;SDS011;22448;51.298;6.430;2023-08-06T03:28:40;9.40;;;4.68;;
35969;SDS011;22448;51.298;6.430;2023-08-06T03:31:07;14.32;;;5.50;;
35969;SDS011;22448;51.298;6.430;2023-08-06T03:33:41;11.10;;;4.97;;
35969;SDS011;22448;51.298;6.430;2023-08-06T03:36:13;9.63;;;5.13;;
35969;SDS011;22448;51.298;6.430;2023-08-06T03:38:41;8.57;;;5.82;;
35969;SDS011;22448;51.298;6.430;2023-08-06T03:41:10;7.78;;;4.72;;
35969;SDS011;22448;51.298;6.430;2023-08-06T03:43:37;7.55;;;4.68;;
35969;SDS011;22448;51.298;6.430;2023-08-06T03:46:09;7.70;;;4.45;;
35969;SDS011;22448;51.298;6.430;2023-08-06T03:48:36;8.32;;;4.65;;
35969;SDS011;22448;51.298;6.430;2023-08-06T03:51:03;6.50;;;4.55;;
35969;SDS011;22448;51.298;6.430;2023-08-06T03:53:30;12.68;;;4.80;;
35969;SDS011;22448;51.298;6.430;2023-08-06T03:55:58;9.18;;;4.78;;
35969;SDS011;22448;51.298;6.430;2023-08-06T03:58:28;6.65;;;4.78;;
35969;SDS011;22448;51.298;6.430;2023-08-06T04:00:59;8.15;;;4.78;;
35969;SDS011;22448;51.298;6.430;2023-08-06T04:03:38;10.85;;;4.78;;
35969;SDS011;22448;51.298;6.430;2023-08-06T04:06:07;8.05;;;4.10;;
35969;SDS011;22448;51.298;6.430;2023-08-06T04:08:35;7.47;;;4.53;;
35969;SDS011;22448;51.298;6.430;2023-08-06T04:11:02;8.50;;;4.75;;
35969;SDS011;22448;51.298;6.430;2023-08-06T04:13:30;7.82;;;4.45;;
35969;SDS011;22448;51.298;6.430;2023-08-06T04:16:01;11.10;;;5.20;;
35969;SDS011;22448;51.298;6.430;2023-08-06T04:18:29;3.78;;;2.95;;
35969;SDS011;22448;51.298;6.430;2023-08-06T04:20:56;6.30;;;4.47;;
35969;SDS011;22448;51.298;6.430;2023-08-06T04:23:24;6.32;;;4.32;;
35969;SDS011;22448;51.298;6.430;2023-08-06T04:25:58;8.60;;;4.47;;
35969;SDS011;22448;51.298;6.430;2023-08-06T04:28:30;11.25;;;4.55;;
35969;SDS011;22448;51.298;6.430;2023-08-06T04:30:58;9.05;;;4.18;;
35969;SDS011;22448;51.298;6.430;2023-08-06T04:33:27;7.65;;;4.35;;
35969;SDS011;22448;51.298;6.430;2023-08-06T04:35:56;5.55;;;3.75;;
35969;SDS011;22448;51.298;6.430;2023-08-06T04:38:25;8.40;;;4.40;;
35969;SDS011;22448;51.298;6.430;2023-08-06T04:40:53;10.73;;;4.40;;
35969;SDS011;22448;51.298;6.430;2023-08-06T04:43:21;5.28;;;4.03;;
35969;SDS011;22448;51.298;6.430;2023-08-06T04:45:49;8.18;;;4.03;;
35969;SDS011;22448;51.298;6.430;2023-08-06T04:48:18;6.07;;;3.70;;
35969;SDS011;22448;51.298;6.430;2023-08-06T04:50:46;6.40;;;4.22;;
35969;SDS011;22448;51.298;6.430;2023-08-06T04:53:14;9.70;;;4.53;;
35969;SDS011;22448;51.298;6.430;2023-08-06T04:55:41;10.10;;;4.45;;
35969;SDS011;22448;51.298;6.430;2023-08-06T04:58:09;9.57;;;4.70;;
35969;SDS011;22448;51.298;6.430;2023-08-06T05:00:37;6.78;;;4.03;;
35969;SDS011;22448;51.298;6.430;2023-08-06T05:03:05;9.88;;;4.38;;
35969;SDS011;22448;51.298;6.430;2023-08-06T05:05:32;6.65;;;3.88;;
35969;SDS011;22448;51.298;6.430;2023-08-06T05:07:59;7.65;;;4.07;;
35969;SDS011;22448;51.298;6.430;2023-08-06T05:10:27;8.45;;;4.88;;
35969;SDS011;22448;51.298;6.430;2023-08-06T05:12:54;7.60;;;3.63;;
35969;SDS011;22448;51.298;6.430;2023-08-06T05:15:21;8.40;;;4.25;;
35969;SDS011;22448;51.298;6.430;2023-08-06T05:18:08;13.45;;;4.72;;
35969;SDS011;22448;51.298;6.430;2023-08-06T05:20:39;6.00;;;3.38;;
35969;SDS011;22448;51.298;6.430;2023-08-06T05:23:07;8.05;;;4.15;;
35969;SDS011;22448;51.298;6.430;2023-08-06T05:25:35;6.50;;;4.07;;
35969;SDS011;22448;51.298;6.430;2023-08-06T05:28:02;8.88;;;3.92;;
35969;SDS011;22448;51.298;6.430;2023-08-06T05:30:30;5.93;;;3.60;;
35969;SDS011;22448;51.298;6.430;2023-08-06T05:32:57;8.38;;;4.35;;
35969;SDS011;22448;51.298;6.430;2023-08-06T05:35:24;12.27;;;5.30;;
35969;SDS011;22448;51.298;6.430;2023-08-06T05:37:51;10.35;;;4.93;;
35969;SDS011;22448;51.298;6.430;2023-08-06T05:40:19;8.60;;;5.35;;
35969;SDS011;22448;51.298;6.430;2023-08-06T05:42:46;10.25;;;5.07;;
35969;SDS011;22448;51.298;6.430;2023-08-06T05:45:13;10.23;;;5.45;;
35969;SDS011;22448;51.298;6.430;2023-08-06T05:47:41;8.88;;;5.22;;
35969;SDS011;22448;51.298;6.430;2023-08-06T05:50:08;6.95;;;4.85;;
35969;SDS011;22448;51.298;6.430;2023-08-06T05:52:35;10.13;;;5.40;;
35969;SDS011;22448;51.298;6.430;2023-08-06T05:55:02;13.10;;;5.03;;
35969;SDS011;22448;51.298;6.430;2023-08-06T05:57:30;9.38;;;4.50;;
35969;SDS011;22448;51.298;6.430;2023-08-06T05:59:57;8.85;;;4.88;;
35969;SDS011;22448;51.298;6.430;2023-08-06T06:02:24;7.50;;;4.32;;
35969;SDS011;22448;51.298;6.430;2023-08-06T06:04:51;13.40;;;4.63;;
35969;SDS011;22448;51.298;6.430;2023-08-06T06:07:18;9.40;;;4.80;;
35969;SDS011;22448;51.298;6.430;2023-08-06T06:09:45;8.20;;;4.90;;
35969;SDS011;22448;51.298;6.430;2023-08-06T06:12:12;6.15;;;4.32;;
35969;SDS011;22448;51.298;6.430;2023-08-06T06:14:39;10.98;;;4.93;;
35969;SDS011;22448;51.298;6.430;2023-08-06T06:17:06;8.20;;;4.63;;
35969;SDS011;22448;51.298;6.430;2023-08-06T06:19:33;7.30;;;4.70;;
35969;SDS011;22448;51.298;6.430;2023-08-06T06:22:00;8.88;;;4.70;;
35969;SDS011;22448;51.298;6.430;2023-08-06T06:24:27;6.82;;;4.45;;
35969;SDS011;22448;51.298;6.430;2023-08-06T06:26:54;6.25;;;4.03;;
35969;SDS011;22448;51.298;6.430;2023-08-06T06:29:21;8.25;;;5.13;;
35969;SDS011;22448;51.298;6.430;2023-08-06T06:31:48;9.02;;;4.38;;
35969;SDS011;22448;51.298;6.430;2023-08-06T06:34:15;5.90;;;4.00;;
35969;SDS011;22448;51.298;6.430;2023-08-06T06:36:42;12.65;;;4.50;;
35969;SDS011;22448;51.298;6.430;2023-08-06T06:39:09;8.90;;;4.18;;
35969;SDS011;22448;51.298;6.430;2023-08-06T06:41:37;5.82;;;4.20;;
35969;SDS011;22448;51.298;6.430;2023-08-06T06:44:21;4.82;;;3.00;;
35969;SDS011;22448;51.298;6.430;2023-08-06T06:46:48;5.57;;;3.00;;
35969;SDS011;22448;51.298;6.430;2023-08-06T06:49:16;5.90;;;2.75;;
35969;SDS011;22448;51.298;6.430;2023-08-06T06:51:45;7.82;;;2.45;;
35969;SDS011;22448;51.298;6.430;2023-08-06T06:54:12;4.38;;;2.20;;
35969;SDS011;22448;51.298;6.430;2023-08-06T06:56:39;5.70;;;3.05;;
35969;SDS011;22448;51.298;6.430;2023-08-06T06:59:06;5.28;;;2.67;;
35969;SDS011;22448;51.298;6.430;2023-08-06T07:01:33;5.72;;;2.33;;
35969;SDS011;22448;51.298;6.430;2023-08-06T07:04:00;4.07;;;2.40;;
35969;SDS011;22448;51.298;6.430;2023-08-06T07:06:31;3.85;;;2.92;;
35969;SDS011;22448;51.298;6.430;2023-08-06T07:08:58;7.45;;;3.08;;
35969;SDS011;22448;51.298;6.430;2023-08-06T07:11:25;9.15;;;2.70;;
35969;SDS011;22448;51.298;6.430;2023-08-06T07:13:56;3.80;;;2.30;;
35969;SDS011;22448;51.298;6.430;2023-08-06T07:16:26;4.75;;;2.78;;
35969;SDS011;22448;51.298;6.430;2023-08-06T07:18:54;5.30;;;3.90;;
35969;SDS011;22448;51.298;6.430;2023-08-06T07:21:21;7.25;;;5.05;;
35969;SDS011;22448;51.298;6.430;2023-08-06T07:23:48;12.02;;;5.25;;
35969;SDS011;22448;51.298;6.430;2023-08-06T07:26:16;6.90;;;4.43;;
35969;SDS011;22448;51.298;6.430;2023-08-06T07:28:44;5.78;;;3.85;;
35969;SDS011;22448;51.298;6.430;2023-08-06T07:31:11;9.38;;;4.45;;
35969;SDS011;22448;51.298;6.430;2023-08-06T07:33:39;11.20;;;4.97;;
35969;SDS011;22448;51.298;6.430;2023-08-06T07:36:10;9.73;;;5.18;;
35969;SDS011;22448;51.298;6.430;2023-08-06T07:38:38;7.82;;;4.75;;
35969;SDS011;22448;51.298;6.430;2023-08-06T07:41:06;7.00;;;4.68;;
35969;SDS011;22448;51.298;6.430;2023-08-06T07:43:33;9.32;;;3.92;;
35969;SDS011;22448;51.298;6.430;2023-08-06T07:46:02;9.05;;;3.97;;
35969;SDS011;22448;51.298;6.430;2023-08-06T07:48:29;7.40;;;3.70;;
35969;SDS011;22448;51.298;6.430;2023-08-06T07:50:57;5.30;;;3.72;;
35969;SDS011;22448;51.298;6.430;2023-08-06T07:53:24;3.25;;;2.95;;
35969;SDS011;22448;51.298;6.430;2023-08-06T07:55:53;6.40;;;4.15;;
35969;SDS011;22448;51.298;6.430;2023-08-06T07:58:21;7.47;;;3.75;;
35969;SDS011;22448;51.298;6.430;2023-08-06T08:00:48;6.93;;;3.78;;
35969;SDS011;22448;51.298;6.430;2023-08-06T08:03:15;9.52;;;3.70;;
35969;SDS011;22448;51.298;6.430;2023-08-06T08:05:43;4.47;;;3.63;;
35969;SDS011;22448;51.298;6.430;2023-08-06T08:08:11;7.35;;;3.50;;
35969;SDS011;22448;51.298;6.430;2023-08-06T08:10:38;9.23;;;4.15;;
35969;SDS011;22448;51.298;6.430;2023-08-06T08:13:05;7.78;;;4.07;;
35969;SDS011;22448;51.298;6.430;2023-08-06T08:15:33;8.43;;;3.97;;
35969;SDS011;22448;51.298;6.430;2023-08-06T08:18:00;5.13;;;3.42;;
35969;SDS011;22448;51.298;6.430;2023-08-06T08:20:28;7.13;;;3.83;;
35969;SDS011;22448;51.298;6.430;2023-08-06T08:22:59;18.40;;;5.72;;
35969;SDS011;22448;51.298;6.430;2023-08-06T08:25:27;6.60;;;4.22;;
35969;SDS011;22448;51.298;6.430;2023-08-06T08:27:57;7.78;;;4.30;;
35969;SDS011;22448;51.298;6.430;2023-08-06T08:30:24;7.15;;;3.78;;
35969;SDS011;22448;51.298;6.430;2023-08-06T08:32:52;6.93;;;3.30;;
35969;SDS011;22448;51.298;6.430;2023-08-06T08:35:20;6.97;;;2.50;;
35969;SDS011;22448;51.298;6.430;2023-08-06T08:37:47;12.50;;;2.88;;
35969;SDS011;22448;51.298;6.430;2023-08-06T08:40:14;5.82;;;3.17;;
35969;SDS011;22448;51.298;6.430;2023-08-06T08:42:42;8.60;;;3.60;;
35969;SDS011;22448;51.298;6.430;2023-08-06T08:45:11;8.93;;;3.70;;
35969;SDS011;22448;51.298;6.430;2023-08-06T08:47:42;6.93;;;4.07;;
35969;SDS011;22448;51.298;6.430;2023-08-06T08:50:10;8.55;;;4.93;;
35969;SDS011;22448;51.298;6.430;2023-08-06T08:52:38;12.85;;;4.47;;
35969;SDS011;22448;51.298;6.430;2023-08-06T08:55:06;11.43;;;5.22;;
35969;SDS011;22448;51.298;6.430;2023-08-06T08:57:34;9.48;;;5.10;;
35969;SDS011;22448;51.298;6.430;2023-08-06T09:00:02;7.53;;;4.80;;
35969;SDS011;22448;51.298;6.430;2023-08-06T09:02:30;11.18;;;6.85;;
35969;SDS011;22448;51.298;6.430;2023-08-06T09:05:00;12.60;;;7.90;;
35969;SDS011;22448;51.298;6.430;2023-08-06T09:07:34;12.77;;;7.95;;
35969;SDS011;22448;51.298;6.430;2023-08-06T09:10:05;10.73;;;6.53;;
35969;SDS011;22448;51.298;6.430;2023-08-06T09:12:36;12.00;;;6.40;;
35969;SDS011;22448;51.298;6.430;2023-08-06T09:15:03;10.05;;;5.60;;
35969;SDS011;22448;51.298;6.430;2023-08-06T09:17:31;9.95;;;4.47;;
35969;SDS011;22448;51.298;6.430;2023-08-06T09:19:58;8.88;;;4.13;;
35969;SDS011;22448;51.298;6.430;2023-08-06T09:22:27;10.48;;;4.18;;
35969;SDS011;22448;51.298;6.430;2023-08-06T09:25:00;5.68;;;3.22;;
35969;SDS011;22448;51.298;6.430;2023-08-06T09:27:27;8.48;;;3.15;;
35969;SDS011;22448;51.298;6.430;2023-08-06T09:29:55;7.80;;;2.90;;
35969;SDS011;22448;51.298;6.430;2023-08-06T09:32:22;10.38;;;3.28;;
35969;SDS011;22448;51.298;6.430;2023-08-06T09:34:54;10.90;;;3.67;;
35969;SDS011;22448;51.298;6.430;2023-08-06T09:37:22;7.80;;;3.88;;
35969;SDS011;22448;51.298;6.430;2023-08-06T09:39:49;8.93;;;3.63;;
35969;SDS011;22448;51.298;6.430;2023-08-06T09:42:18;6.75;;;3.00;;
35969;SDS011;22448;51.298;6.430;2023-08-06T09:44:45;4.15;;;2.75;;
35969;SDS011;22448;51.298;6.430;2023-08-06T09:47:12;4.97;;;2.58;;
35969;SDS011;22448;51.298;6.430;2023-08-06T09:49:44;2.75;;;2.33;;
35969;SDS011;22448;51.298;6.430;2023-08-06T09:52:12;8.45;;;2.25;;
35969;SDS011;22448;51.298;6.430;2023-08-06T09:54:40;3.42;;;2.05;;
35969;SDS011;22448;51.298;6.430;2023-08-06T09:57:08;2.88;;;2.10;;
35969;SDS011;22448;51.298;6.430;2023-08-06T09:59:35;4.57;;;1.95;;
35969;SDS011;22448;51.298;6.430;2023-08-06T10:02:07;3.90;;;2.47;;
35969;SDS011;22448;51.298;6.430;2023-08-06T10:04:39;3.08;;;1.63;;
35969;SDS011;22448;51.298;6.430;2023-08-06T10:07:10;4.18;;;1.60;;
35969;SDS011;22448;51.298;6.430;2023-08-06T10:09:38;1.10;;;1.00;;
35969;SDS011;22448;51.298;6.430;2023-08-06T10:12:05;1.58;;;1.00;;
35969;SDS011;22448;51.298;6.430;2023-08-06T10:14:33;2.80;;;1.40;;
35969;SDS011;22448;51.298;6.430;2023-08-06T10:17:03;2.47;;;1.25;;
35969;SDS011;22448;51.298;6.430;2023-08-06T10:19:30;0.80;;;0.80;;
35969;SDS011;22448;51.298;6.430;2023-08-06T10:24:57;2.55;;;1.50;;
35969;SDS011;22448;51.298;6.430;2023-08-06T10:30:19;3.33;;;2.28;;
35969;SDS011;22448;51.298;6.430;2023-08-06T10:33:00;4.50;;;2.92;;
35969;SDS011;22448;51.298;6.430;2023-08-06T10:35:41;4.75;;;3.35;;
35969;SDS011;22448;51.298;6.430;2023-08-06T10:38:25;4.50;;;3.33;;
35969;SDS011;22448;51.298;6.430;2023-08-06T10:43:39;8.32;;;4.10;;
35969;SDS011;22448;51.298;6.430;2023-08-06T10:46:11;4.78;;;3.70;;
35969;SDS011;22448;51.298;6.430;2023-08-06T10:48:47;7.45;;;4.40;;
35969;SDS011;22448;51.298;6.430;2023-08-06T10:51:14;5.85;;;4.15;;
35969;SDS011;22448;51.298;6.430;2023-08-06T10:53:41;4.78;;;3.03;;
35969;SDS011;22448;51.298;6.430;2023-08-06T10:56:13;5.07;;;2.85;;
35969;SDS011;22448;51.298;6.430;2023-08-06T10:58:49;5.68;;;2.58;;
35969;SDS011;22448;51.298;6.430;2023-08-06T11:01:17;4.90;;;3.00;;
35969;SDS011;22448;51.298;6.430;2023-08-06T11:03:45;8.15;;;3.80;;
35969;SDS011;22448;51.298;6.430;2023-08-06T11:06:19;6.75;;;4.18;;
35969;SDS011;22448;51.298;6.430;2023-08-06T11:08:47;9.10;;;4.60;;
35969;SDS011;22448;51.298;6.430;2023-08-06T11:11:17;10.45;;;5.40;;
35969;SDS011;22448;51.298;6.430;2023-08-06T11:13:46;9.82;;;5.32;;
35969;SDS011;22448;51.298;6.430;2023-08-06T11:16:23;8.27;;;4.93;;
35969;SDS011;22448;51.298;6.430;2023-08-06T11:18:51;9.93;;;4.97;;
35969;SDS011;22448;51.298;6.430;2023-08-06T11:21:20;8.43;;;5.20;;
35969;SDS011;22448;51.298;6.430;2023-08-06T11:23:48;12.38;;;4.88;;
35969;SDS011;22448;51.298;6.430;2023-08-06T11:26:18;11.57;;;5.20;;
35969;SDS011;22448;51.298;6.430;2023-08-06T11:28:47;9.43;;;4.95;;
35969;SDS011;22448;51.298;6.430;2023-08-06T11:31:20;14.25;;;5.82;;
35969;SDS011;22448;51.298;6.430;2023-08-06T11:33:51;17.83;;;6.22;;
35969;SDS011;22448;51.298;6.430;2023-08-06T11:36:28;11.32;;;5.97;;
35969;SDS011;22448;51.298;6.430;2023-08-06T11:38:58;13.43;;;5.38;;
35969;SDS011;22448;51.298;6.430;2023-08-06T11:41:27;15.50;;;6.50;;
35969;SDS011;22448;51.298;6.430;2023-08-06T11:43:55;11.63;;;5.40;;
35969;SDS011;22448;51.298;6.430;2023-08-06T11:46:22;14.20;;;5.80;;
35969;SDS011;22448;51.298;6.430;2023-08-06T11:48:53;13.88;;;5.65;;
35969;SDS011;22448;51.298;6.430;2023-08-06T11:51:27;12.82;;;6.10;;
35969;SDS011;22448;51.298;6.430;2023-08-06T11:53:58;13.25;;;5.30;;
35969;SDS011;22448;51.298;6.430;2023-08-06T11:56:25;26.20;;;11.40;;
35969;SDS011;22448;51.298;6.430;2023-08-06T11:58:54;13.77;;;8.73;;
35969;SDS011;22448;51.298;6.430;2023-08-06T12:01:22;52.50;;;33.55;;
35969;SDS011;22448;51.298;6.430;2023-08-06T12:03:48;10.43;;;6.32;;
35969;SDS011;22448;51.298;6.430;2023-08-06T12:06:16;8.20;;;4.72;;
35969;SDS011;22448;51.298;6.430;2023-08-06T12:08:43;11.02;;;4.88;;
35969;SDS011;22448;51.298;6.430;2023-08-06T12:11:10;28.13;;;23.38;;
35969;SDS011;22448;51.298;6.430;2023-08-06T12:13:37;36.15;;;31.10;;
35969;SDS011;22448;51.298;6.430;2023-08-06T12:16:04;12.82;;;9.43;;
35969;SDS011;22448;51.298;6.430;2023-08-06T12:18:31;22.00;;;17.20;;
35969;SDS011;22448;51.298;6.430;2023-08-06T12:20:58;14.20;;;8.95;;
35969;SDS011;22448;51.298;6.430;2023-08-06T12:23:25;19.92;;;16.00;;
35969;SDS011;22448;51.298;6.430;2023-08-06T12:25:52;16.17;;;11.70;;
35969;SDS011;22448;51.298;6.430;2023-08-06T12:28:19;10.48;;;7.35;;
35969;SDS011;22448;51.298;6.430;2023-08-06T12:30:49;11.30;;;9.93;;
35969;SDS011;22448;51.298;6.430;2023-08-06T12:33:16;15.23;;;7.00;;
35969;SDS011;22448;51.298;6.430;2023-08-06T12:35:43;14.65;;;12.00;;
35969;SDS011;22448;51.298;6.430;2023-08-06T12:38:11;12.25;;;8.27;;
35969;SDS011;22448;51.298;6.430;2023-08-06T12:40:38;8.25;;;6.85;;
35969;SDS011;22448;51.298;6.430;2023-08-06T12:43:09;16.08;;;10.52;;
35969;SDS011;22448;51.298;6.430;2023-08-06T12:45:36;14.10;;;7.75;;
35969;SDS011;22448;51.298;6.430;2023-08-06T12:48:03;12.45;;;5.88;;
35969;SDS011;22448;51.298;6.430;2023-08-06T12:50:30;10.35;;;5.70;;
35969;SDS011;22448;51.298;6.430;2023-08-06T12:52:59;9.45;;;5.13;;
35969;SDS011;22448;51.298;6.430;2023-08-06T12:55:26;14.18;;;10.25;;
35969;SDS011;22448;51.298;6.430;2023-08-06T12:57:55;10.80;;;5.40;;
35969;SDS011;22448;51.298;6.430;2023-08-06T13:00:25;8.55;;;4.88;;
35969;SDS011;22448;51.298;6.430;2023-08-06T13:02:53;10.40;;;4.82;;
35969;SDS011;22448;51.298;6.430;2023-08-06T13:05:20;7.25;;;4.50;;
35969;SDS011;22448;51.298;6.430;2023-08-06T13:07:47;12.55;;;6.95;;
35969;SDS011;22448;51.298;6.430;2023-08-06T13:10:14;8.32;;;4.72;;
35969;SDS011;22448;51.298;6.430;2023-08-06T13:12:41;10.70;;;5.72;;
35969;SDS011;22448;51.298;6.430;2023-08-06T13:15:09;15.57;;;7.47;;
35969;SDS011;22448;51.298;6.430;2023-08-06T13:17:36;6.65;;;3.88;;
35969;SDS011;22448;51.298;6.430;2023-08-06T13:20:04;10.40;;;4.22;;
35969;SDS011;22448;51.298;6.430;2023-08-06T13:22:32;10.63;;;4.75;;
35969;SDS011;22448;51.298;6.430;2023-08-06T13:24:59;10.00;;;4.60;;
35969;SDS011;22448;51.298;6.430;2023-08-06T13:27:26;11.15;;;4.90;;
35969;SDS011;22448;51.298;6.430;2023-08-06T13:29:53;10.82;;;4.90;;
35969;SDS011;22448;51.298;6.430;2023-08-06T13:32:20;10.82;;;6.53;;
35969;SDS011;22448;51.298;6.430;2023-08-06T13:34:47;11.80;;;4.65;;
35969;SDS011;22448;51.298;6.430;2023-08-06T13:37:14;11.25;;;5.45;;
35969;SDS011;22448;51.298;6.430;2023-08-06T13:39:41;11.20;;;5.22;;
35969;SDS011;22448;51.298;6.430;2023-08-06T13:42:08;11.23;;;5.25;;
35969;SDS011;22448;51.298;6.430;2023-08-06T13:44:35;9.68;;;5.53;;
35969;SDS011;22448;51.298;6.430;2023-08-06T13:47:03;9.57;;;5.25;;
35969;SDS011;22448;51.298;6.430;2023-08-06T13:49:29;14.85;;;5.95;;
35969;SDS011;22448;51.298;6.430;2023-08-06T13:51:56;12.93;;;6.80;;
35969;SDS011;22448;51.298;6.430;2023-08-06T13:54:43;12.50;;;6.85;;
35969;SDS011;22448;51.298;6.430;2023-08-06T13:57:10;13.05;;;7.18;;
35969;SDS011;22448;51.298;6.430;2023-08-06T13:59:37;30.10;;;17.40;;
35969;SDS011;22448;51.298;6.430;2023-08-06T14:02:04;53.55;;;34.25;;
35969;SDS011;22448;51.298;6.430;2023-08-06T14:04:32;36.28;;;22.02;;
35969;SDS011;22448;51.298;6.430;2023-08-06T14:06:59;49.45;;;31.15;;
35969;SDS011;22448;51.298;6.430;2023-08-06T14:09:26;27.65;;;19.40;;
35969;SDS011;22448;51.298;6.430;2023-08-06T14:11:54;24.30;;;17.73;;
35969;SDS011;22448;51.298;6.430;2023-08-06T14:14:21;24.13;;;14.57;;
35969;SDS011;22448;51.298;6.430;2023-08-06T14:16:53;28.75;;;15.88;;
35969;SDS011;22448;51.298;6.430;2023-08-06T14:19:21;26.50;;;12.10;;
35969;SDS011;22448;51.298;6.430;2023-08-06T14:21:49;19.05;;;11.40;;
35969;SDS011;22448;51.298;6.430;2023-08-06T14:24:18;14.90;;;7.65;;
35969;SDS011;22448;51.298;6.430;2023-08-06T14:26:45;23.13;;;9.88;;
35969;SDS011;22448;51.298;6.430;2023-08-06T14:29:12;16.15;;;7.20;;
35969;SDS011;22448;51.298;6.430;2023-08-06T14:31:40;14.93;;;6.80;;
35969;SDS011;22448;51.298;6.430;2023-08-06T14:34:07;17.65;;;7.03;;
35969;SDS011;22448;51.298;6.430;2023-08-06T14:36:34;14.82;;;7.85;;
35969;SDS011;22448;51.298;6.430;2023-08-06T14:39:01;14.07;;;7.05;;
35969;SDS011;22448;51.298;6.430;2023-08-06T14:41:28;13.07;;;5.55;;
35969;SDS011;22448;51.298;6.430;2023-08-06T14:43:56;9.18;;;4.93;;
35969;SDS011;22448;51.298;6.430;2023-08-06T14:46:23;11.55;;;4.90;;
35969;SDS011;22448;51.298;6.430;2023-08-06T14:48:50;11.50;;;5.70;;
35969;SDS011;22448;51.298;6.430;2023-08-06T14:51:17;15.23;;;5.50;;
35969;SDS011;22448;51.298;6.430;2023-08-06T14:53:46;14.48;;;5.60;;
35969;SDS011;22448;51.298;6.430;2023-08-06T14:56:13;15.55;;;5.95;;
35969;SDS011;22448;51.298;6.430;2023-08-06T14:58:40;5.97;;;3.20;;
35969;SDS011;22448;51.298;6.430;2023-08-06T15:01:08;9.25;;;4.03;;
35969;SDS011;22448;51.298;6.430;2023-08-06T15:03:35;10.23;;;3.45;;